sensor_id;sensor_type;location;lat;lon;timestamp;P1;durP1;ratioP1;P2;durP2;ratioP2
63902;SDS011;50072;50.678;13.938;2023-04-30T00:02:17;16.90;;;9.10;;
63902;SDS011;50072;50.678;13.938;2023-04-30T00:04:44;18.23;;;10.50;;
63902;SDS011;50072;50.678;13.938;2023-04-30T00:07:10;16.52;;;9.70;;
63902;SDS011;50072;50.678;13.938;2023-04-30T00:09:36;16.17;;;9.02;;
63902;SDS011;50072;50.678;13.938;2023-04-30T00:12:03;23.40;;;10.60;;
63902;SDS011;50072;50.678;13.938;2023-04-30T00:14:29;26.77;;;9.95;;
63902;SDS011;50072;50.678;13.938;2023-04-30T00:16:55;17.77;;;9.88;;
63902;SDS011;50072;50.678;13.938;2023-04-30T00:19:21;14.52;;;9.30;;
63902;SDS011;50072;50.678;13.938;2023-04-30T00:21:47;14.77;;;9.18;;
63902;SDS011;50072;50.678;13.938;2023-04-30T00:24:14;20.75;;;9.98;;
63902;SDS011;50072;50.678;13.938;2023-04-30T00:26:43;16.35;;;9.48;;
63902;SDS011;50072;50.678;13.938;2023-04-30T00:29:11;19.05;;;9.40;;
63902;SDS011;50072;50.678;13.938;2023-04-30T00:31:37;16.25;;;9.18;;
63902;SDS011;50072;50.678;13.938;2023-04-30T00:34:09;17.95;;;10.02;;
63902;SDS011;50072;50.678;13.938;2023-04-30T00:36:36;19.35;;;9.32;;
63902;SDS011;50072;50.678;13.938;2023-04-30T00:39:04;14.80;;;8.68;;
63902;SDS011;50072;50.678;13.938;2023-04-30T00:41:34;16.35;;;8.82;;
63902;SDS011;50072;50.678;13.938;2023-04-30T00:44:01;14.75;;;9.13;;
63902;SDS011;50072;50.678;13.938;2023-04-30T00:46:27;18.38;;;8.93;;
63902;SDS011;50072;50.678;13.938;2023-04-30T00:48:54;14.77;;;8.77;;
63902;SDS011;50072;50.678;13.938;2023-04-30T00:51:19;16.40;;;9.30;;
63902;SDS011;50072;50.678;13.938;2023-04-30T00:53:45;15.30;;;9.20;;
63902;SDS011;50072;50.678;13.938;2023-04-30T00:56:13;14.20;;;8.50;;
63902;SDS011;50072;50.678;13.938;2023-04-30T00:58:41;17.05;;;9.27;;
63902;SDS011;50072;50.678;13.938;2023-04-30T01:01:07;15.98;;;9.60;;
63902;SDS011;50072;50.678;13.938;2023-04-30T01:03:35;13.77;;;8.60;;
63902;SDS011;50072;50.678;13.938;2023-04-30T01:06:02;17.65;;;9.70;;
63902;SDS011;50072;50.678;13.938;2023-04-30T01:08:30;14.48;;;8.90;;
63902;SDS011;50072;50.678;13.938;2023-04-30T01:13:33;17.40;;;9.00;;
63902;SDS011;50072;50.678;13.938;2023-04-30T01:16:09;16.13;;;8.82;;
63902;SDS011;50072;50.678;13.938;2023-04-30T01:21:38;15.60;;;9.18;;
63902;SDS011;50072;50.678;13.938;2023-04-30T01:29:31;14.10;;;9.43;;
63902;SDS011;50072;50.678;13.938;2023-04-30T01:32:01;16.00;;;8.43;;
63902;SDS011;50072;50.678;13.938;2023-04-30T01:34:28;14.32;;;8.75;;
63902;SDS011;50072;50.678;13.938;2023-04-30T01:42:19;12.77;;;7.93;;
63902;SDS011;50072;50.678;13.938;2023-04-30T01:44:49;13.95;;;7.45;;
63902;SDS011;50072;50.678;13.938;2023-04-30T01:50:32;14.35;;;7.50;;
63902;SDS011;50072;50.678;13.938;2023-04-30T01:53:12;14.00;;;7.55;;
63902;SDS011;50072;50.678;13.938;2023-04-30T01:55:49;12.48;;;7.70;;
63902;SDS011;50072;50.678;13.938;2023-04-30T01:58:20;14.68;;;7.22;;
63902;SDS011;50072;50.678;13.938;2023-04-30T02:00:49;14.20;;;7.47;;
63902;SDS011;50072;50.678;13.938;2023-04-30T02:03:16;12.43;;;7.22;;
63902;SDS011;50072;50.678;13.938;2023-04-30T02:05:42;13.95;;;8.02;;
63902;SDS011;50072;50.678;13.938;2023-04-30T02:08:15;15.05;;;7.80;;
63902;SDS011;50072;50.678;13.938;2023-04-30T02:10:41;13.35;;;7.75;;
63902;SDS011;50072;50.678;13.938;2023-04-30T02:13:06;17.63;;;8.10;;
63902;SDS011;50072;50.678;13.938;2023-04-30T02:15:32;14.60;;;8.48;;
63902;SDS011;50072;50.678;13.938;2023-04-30T02:17:58;16.38;;;8.32;;
63902;SDS011;50072;50.678;13.938;2023-04-30T02:20:25;13.15;;;8.25;;
63902;SDS011;50072;50.678;13.938;2023-04-30T02:22:57;15.60;;;8.82;;
63902;SDS011;50072;50.678;13.938;2023-04-30T02:25:26;16.25;;;8.68;;
63902;SDS011;50072;50.678;13.938;2023-04-30T02:27:52;15.45;;;9.23;;
63902;SDS011;50072;50.678;13.938;2023-04-30T02:30:26;15.02;;;8.88;;
63902;SDS011;50072;50.678;13.938;2023-04-30T02:32:51;15.70;;;8.52;;
63902;SDS011;50072;50.678;13.938;2023-04-30T02:35:23;15.60;;;9.05;;
63902;SDS011;50072;50.678;13.938;2023-04-30T02:37:50;14.75;;;8.25;;
63902;SDS011;50072;50.678;13.938;2023-04-30T02:40:16;15.50;;;9.13;;
63902;SDS011;50072;50.678;13.938;2023-04-30T02:42:41;14.98;;;8.98;;
63902;SDS011;50072;50.678;13.938;2023-04-30T02:45:09;15.45;;;9.27;;
63902;SDS011;50072;50.678;13.938;2023-04-30T02:47:38;14.40;;;8.60;;
63902;SDS011;50072;50.678;13.938;2023-04-30T02:50:05;18.85;;;8.23;;
63902;SDS011;50072;50.678;13.938;2023-04-30T02:52:33;15.55;;;8.77;;
63902;SDS011;50072;50.678;13.938;2023-04-30T02:54:59;15.68;;;8.25;;
63902;SDS011;50072;50.678;13.938;2023-04-30T02:57:25;17.00;;;8.35;;
63902;SDS011;50072;50.678;13.938;2023-04-30T02:59:51;13.80;;;8.23;;
63902;SDS011;50072;50.678;13.938;2023-04-30T03:02:16;13.07;;;7.57;;
63902;SDS011;50072;50.678;13.938;2023-04-30T03:04:45;14.07;;;7.75;;
63902;SDS011;50072;50.678;13.938;2023-04-30T03:07:11;14.20;;;7.70;;
63902;SDS011;50072;50.678;13.938;2023-04-30T03:09:37;14.10;;;7.65;;
63902;SDS011;50072;50.678;13.938;2023-04-30T03:12:09;12.35;;;7.65;;
63902;SDS011;50072;50.678;13.938;2023-04-30T03:17:00;12.98;;;7.22;;
63902;SDS011;50072;50.678;13.938;2023-04-30T03:19:27;12.00;;;7.47;;
63902;SDS011;50072;50.678;13.938;2023-04-30T03:21:53;13.40;;;7.75;;
63902;SDS011;50072;50.678;13.938;2023-04-30T03:24:27;11.85;;;7.20;;
63902;SDS011;50072;50.678;13.938;2023-04-30T03:26:53;12.88;;;7.63;;
63902;SDS011;50072;50.678;13.938;2023-04-30T03:29:19;14.20;;;7.55;;
63902;SDS011;50072;50.678;13.938;2023-04-30T03:31:45;13.45;;;7.82;;
63902;SDS011;50072;50.678;13.938;2023-04-30T03:34:14;16.05;;;7.80;;
63902;SDS011;50072;50.678;13.938;2023-04-30T03:36:40;11.55;;;7.53;;
63902;SDS011;50072;50.678;13.938;2023-04-30T03:39:06;12.07;;;6.82;;
63902;SDS011;50072;50.678;13.938;2023-04-30T03:41:36;15.20;;;7.85;;
63902;SDS011;50072;50.678;13.938;2023-04-30T03:44:03;13.93;;;7.55;;
63902;SDS011;50072;50.678;13.938;2023-04-30T03:46:30;13.20;;;7.35;;
63902;SDS011;50072;50.678;13.938;2023-04-30T03:48:58;13.32;;;7.85;;
63902;SDS011;50072;50.678;13.938;2023-04-30T03:51:25;17.30;;;8.13;;
63902;SDS011;50072;50.678;13.938;2023-04-30T03:53:52;12.20;;;7.43;;
63902;SDS011;50072;50.678;13.938;2023-04-30T03:56:18;12.40;;;7.75;;
63902;SDS011;50072;50.678;13.938;2023-04-30T03:58:44;13.75;;;8.13;;
63902;SDS011;50072;50.678;13.938;2023-04-30T04:01:12;15.68;;;8.38;;
63902;SDS011;50072;50.678;13.938;2023-04-30T04:03:38;14.80;;;8.10;;
63902;SDS011;50072;50.678;13.938;2023-04-30T04:06:05;16.35;;;7.88;;
63902;SDS011;50072;50.678;13.938;2023-04-30T04:08:31;14.23;;;8.48;;
63902;SDS011;50072;50.678;13.938;2023-04-30T04:10:59;15.57;;;8.07;;
63902;SDS011;50072;50.678;13.938;2023-04-30T04:13:30;15.23;;;8.80;;
63902;SDS011;50072;50.678;13.938;2023-04-30T04:15:55;13.50;;;8.07;;
63902;SDS011;50072;50.678;13.938;2023-04-30T04:18:21;15.85;;;8.00;;
63902;SDS011;50072;50.678;13.938;2023-04-30T04:20:49;15.98;;;7.78;;
63902;SDS011;50072;50.678;13.938;2023-04-30T04:23:16;16.80;;;8.32;;
63902;SDS011;50072;50.678;13.938;2023-04-30T04:25:41;16.25;;;9.15;;
63902;SDS011;50072;50.678;13.938;2023-04-30T04:28:10;17.00;;;8.27;;
63902;SDS011;50072;50.678;13.938;2023-04-30T04:30:35;15.63;;;8.52;;
63902;SDS011;50072;50.678;13.938;2023-04-30T04:33:04;12.40;;;8.20;;
63902;SDS011;50072;50.678;13.938;2023-04-30T04:35:30;17.52;;;8.55;;
63902;SDS011;50072;50.678;13.938;2023-04-30T04:37:57;15.00;;;8.57;;
63902;SDS011;50072;50.678;13.938;2023-04-30T04:40:39;15.80;;;8.63;;
63902;SDS011;50072;50.678;13.938;2023-04-30T04:43:05;14.63;;;8.10;;
63902;SDS011;50072;50.678;13.938;2023-04-30T04:45:31;15.43;;;8.65;;
63902;SDS011;50072;50.678;13.938;2023-04-30T04:47:58;14.77;;;7.65;;
63902;SDS011;50072;50.678;13.938;2023-04-30T04:50:23;15.63;;;7.85;;
63902;SDS011;50072;50.678;13.938;2023-04-30T04:52:55;13.32;;;7.75;;
63902;SDS011;50072;50.678;13.938;2023-04-30T04:55:21;12.32;;;7.47;;
63902;SDS011;50072;50.678;13.938;2023-04-30T04:57:48;11.95;;;7.50;;
63902;SDS011;50072;50.678;13.938;2023-04-30T05:00:16;15.20;;;7.20;;
63902;SDS011;50072;50.678;13.938;2023-04-30T05:02:42;11.52;;;6.95;;
63902;SDS011;50072;50.678;13.938;2023-04-30T05:05:08;13.32;;;7.43;;
63902;SDS011;50072;50.678;13.938;2023-04-30T05:07:35;11.73;;;6.57;;
63902;SDS011;50072;50.678;13.938;2023-04-30T05:10:01;13.73;;;6.70;;
63902;SDS011;50072;50.678;13.938;2023-04-30T05:12:27;11.30;;;6.68;;
63902;SDS011;50072;50.678;13.938;2023-04-30T05:14:53;10.73;;;6.80;;
63902;SDS011;50072;50.678;13.938;2023-04-30T05:17:19;12.45;;;7.45;;
63902;SDS011;50072;50.678;13.938;2023-04-30T05:19:45;14.48;;;7.28;;
63902;SDS011;50072;50.678;13.938;2023-04-30T05:22:14;11.10;;;6.95;;
63902;SDS011;50072;50.678;13.938;2023-04-30T05:24:41;12.88;;;6.80;;
63902;SDS011;50072;50.678;13.938;2023-04-30T05:27:11;10.77;;;6.50;;
63902;SDS011;50072;50.678;13.938;2023-04-30T05:29:37;12.48;;;6.68;;
63902;SDS011;50072;50.678;13.938;2023-04-30T05:32:03;15.48;;;7.10;;
63902;SDS011;50072;50.678;13.938;2023-04-30T05:34:37;10.93;;;6.78;;
63902;SDS011;50072;50.678;13.938;2023-04-30T05:37:04;13.85;;;6.15;;
63902;SDS011;50072;50.678;13.938;2023-04-30T05:39:30;11.13;;;5.97;;
63902;SDS011;50072;50.678;13.938;2023-04-30T05:41:56;10.25;;;6.60;;
63902;SDS011;50072;50.678;13.938;2023-04-30T05:44:22;10.43;;;6.10;;
63902;SDS011;50072;50.678;13.938;2023-04-30T05:46:48;15.50;;;6.18;;
63902;SDS011;50072;50.678;13.938;2023-04-30T05:49:16;14.80;;;6.38;;
63902;SDS011;50072;50.678;13.938;2023-04-30T05:51:44;10.10;;;5.60;;
63902;SDS011;50072;50.678;13.938;2023-04-30T05:54:11;14.10;;;5.90;;
63902;SDS011;50072;50.678;13.938;2023-04-30T05:56:37;8.48;;;4.75;;
63902;SDS011;50072;50.678;13.938;2023-04-30T05:59:04;11.45;;;5.80;;
63902;SDS011;50072;50.678;13.938;2023-04-30T06:01:31;8.98;;;4.95;;
63902;SDS011;50072;50.678;13.938;2023-04-30T06:03:58;9.65;;;5.43;;
63902;SDS011;50072;50.678;13.938;2023-04-30T06:06:25;8.30;;;5.10;;
63902;SDS011;50072;50.678;13.938;2023-04-30T06:08:52;9.15;;;5.40;;
63902;SDS011;50072;50.678;13.938;2023-04-30T06:11:18;11.23;;;5.32;;
63902;SDS011;50072;50.678;13.938;2023-04-30T06:13:46;9.32;;;4.75;;
63902;SDS011;50072;50.678;13.938;2023-04-30T06:16:12;12.40;;;5.82;;
63902;SDS011;50072;50.678;13.938;2023-04-30T06:18:38;12.27;;;6.00;;
63902;SDS011;50072;50.678;13.938;2023-04-30T06:21:04;9.63;;;5.20;;
63902;SDS011;50072;50.678;13.938;2023-04-30T06:23:30;11.70;;;5.68;;
63902;SDS011;50072;50.678;13.938;2023-04-30T06:25:56;11.18;;;5.35;;
63902;SDS011;50072;50.678;13.938;2023-04-30T06:28:22;10.30;;;5.30;;
63902;SDS011;50072;50.678;13.938;2023-04-30T06:30:48;9.23;;;5.10;;
63902;SDS011;50072;50.678;13.938;2023-04-30T06:33:15;9.55;;;5.38;;
63902;SDS011;50072;50.678;13.938;2023-04-30T06:35:41;10.80;;;4.70;;
63902;SDS011;50072;50.678;13.938;2023-04-30T06:38:07;9.73;;;4.90;;
63902;SDS011;50072;50.678;13.938;2023-04-30T06:40:33;10.23;;;4.88;;
63902;SDS011;50072;50.678;13.938;2023-04-30T06:42:59;10.50;;;5.20;;
63902;SDS011;50072;50.678;13.938;2023-04-30T06:45:25;10.10;;;4.78;;
63902;SDS011;50072;50.678;13.938;2023-04-30T06:47:51;8.50;;;4.93;;
63902;SDS011;50072;50.678;13.938;2023-04-30T06:50:17;9.25;;;4.63;;
63902;SDS011;50072;50.678;13.938;2023-04-30T06:52:45;9.35;;;5.15;;
63902;SDS011;50072;50.678;13.938;2023-04-30T06:55:11;8.95;;;4.35;;
63902;SDS011;50072;50.678;13.938;2023-04-30T06:57:37;9.90;;;4.63;;
63902;SDS011;50072;50.678;13.938;2023-04-30T07:00:04;10.73;;;4.40;;
63902;SDS011;50072;50.678;13.938;2023-04-30T07:02:30;6.70;;;4.20;;
63902;SDS011;50072;50.678;13.938;2023-04-30T07:04:57;9.23;;;4.22;;
63902;SDS011;50072;50.678;13.938;2023-04-30T07:07:23;10.75;;;4.75;;
63902;SDS011;50072;50.678;13.938;2023-04-30T07:09:49;9.93;;;3.92;;
63902;SDS011;50072;50.678;13.938;2023-04-30T07:12:15;7.70;;;4.45;;
63902;SDS011;50072;50.678;13.938;2023-04-30T07:14:41;11.40;;;4.57;;
63902;SDS011;50072;50.678;13.938;2023-04-30T07:17:09;8.38;;;4.20;;
63902;SDS011;50072;50.678;13.938;2023-04-30T07:19:36;10.10;;;4.00;;
63902;SDS011;50072;50.678;13.938;2023-04-30T07:22:01;11.45;;;4.00;;
63902;SDS011;50072;50.678;13.938;2023-04-30T07:24:27;7.25;;;3.95;;
63902;SDS011;50072;50.678;13.938;2023-04-30T07:26:53;6.63;;;3.90;;
63902;SDS011;50072;50.678;13.938;2023-04-30T07:29:19;7.78;;;4.07;;
63902;SDS011;50072;50.678;13.938;2023-04-30T07:31:45;9.25;;;3.72;;
63902;SDS011;50072;50.678;13.938;2023-04-30T07:34:11;8.73;;;3.63;;
63902;SDS011;50072;50.678;13.938;2023-04-30T07:36:37;8.75;;;3.65;;
63902;SDS011;50072;50.678;13.938;2023-04-30T07:39:03;8.48;;;3.97;;
63902;SDS011;50072;50.678;13.938;2023-04-30T07:41:30;6.43;;;4.00;;
63902;SDS011;50072;50.678;13.938;2023-04-30T07:43:56;7.10;;;3.35;;
63902;SDS011;50072;50.678;13.938;2023-04-30T07:46:22;7.85;;;4.30;;
63902;SDS011;50072;50.678;13.938;2023-04-30T07:48:49;8.07;;;4.45;;
63902;SDS011;50072;50.678;13.938;2023-04-30T07:51:15;6.13;;;3.33;;
63902;SDS011;50072;50.678;13.938;2023-04-30T07:53:41;6.63;;;3.92;;
63902;SDS011;50072;50.678;13.938;2023-04-30T07:56:07;5.30;;;3.25;;
63902;SDS011;50072;50.678;13.938;2023-04-30T07:58:33;7.78;;;3.53;;
63902;SDS011;50072;50.678;13.938;2023-04-30T08:00:58;8.68;;;3.55;;
63902;SDS011;50072;50.678;13.938;2023-04-30T08:03:24;7.40;;;3.47;;
63902;SDS011;50072;50.678;13.938;2023-04-30T08:05:51;6.78;;;3.53;;
63902;SDS011;50072;50.678;13.938;2023-04-30T08:08:17;6.57;;;3.42;;
63902;SDS011;50072;50.678;13.938;2023-04-30T08:10:43;6.90;;;3.42;;
63902;SDS011;50072;50.678;13.938;2023-04-30T08:13:09;7.32;;;3.00;;
63902;SDS011;50072;50.678;13.938;2023-04-30T08:15:35;6.53;;;3.50;;
63902;SDS011;50072;50.678;13.938;2023-04-30T08:18:03;7.05;;;3.53;;
63902;SDS011;50072;50.678;13.938;2023-04-30T08:20:30;6.50;;;3.65;;
63902;SDS011;50072;50.678;13.938;2023-04-30T08:22:57;6.00;;;3.47;;
63902;SDS011;50072;50.678;13.938;2023-04-30T08:25:23;5.88;;;3.47;;
63902;SDS011;50072;50.678;13.938;2023-04-30T08:27:49;7.82;;;3.17;;
63902;SDS011;50072;50.678;13.938;2023-04-30T08:30:15;5.45;;;3.08;;
63902;SDS011;50072;50.678;13.938;2023-04-30T08:32:41;6.57;;;3.05;;
63902;SDS011;50072;50.678;13.938;2023-04-30T08:35:07;6.45;;;3.33;;
63902;SDS011;50072;50.678;13.938;2023-04-30T08:37:33;8.10;;;3.40;;
63902;SDS011;50072;50.678;13.938;2023-04-30T08:40:00;7.18;;;3.42;;
63902;SDS011;50072;50.678;13.938;2023-04-30T08:42:33;5.25;;;3.10;;
63902;SDS011;50072;50.678;13.938;2023-04-30T08:45:01;7.15;;;2.90;;
63902;SDS011;50072;50.678;13.938;2023-04-30T08:47:31;7.15;;;3.30;;
63902;SDS011;50072;50.678;13.938;2023-04-30T08:49:57;6.13;;;3.40;;
63902;SDS011;50072;50.678;13.938;2023-04-30T08:52:23;9.60;;;5.53;;
63902;SDS011;50072;50.678;13.938;2023-04-30T08:54:51;10.85;;;4.90;;
63902;SDS011;50072;50.678;13.938;2023-04-30T08:57:19;6.15;;;3.28;;
63902;SDS011;50072;50.678;13.938;2023-04-30T08:59:46;5.93;;;3.10;;
63902;SDS011;50072;50.678;13.938;2023-04-30T09:02:12;9.27;;;3.10;;
63902;SDS011;50072;50.678;13.938;2023-04-30T09:04:40;7.32;;;3.28;;
63902;SDS011;50072;50.678;13.938;2023-04-30T09:07:08;7.20;;;3.20;;
63902;SDS011;50072;50.678;13.938;2023-04-30T09:09:45;5.80;;;3.47;;
63902;SDS011;50072;50.678;13.938;2023-04-30T09:12:15;9.07;;;3.00;;
63902;SDS011;50072;50.678;13.938;2023-04-30T09:15:02;7.30;;;3.30;;
63902;SDS011;50072;50.678;13.938;2023-04-30T09:17:30;8.43;;;3.60;;
63902;SDS011;50072;50.678;13.938;2023-04-30T09:20:09;5.85;;;2.80;;
63902;SDS011;50072;50.678;13.938;2023-04-30T09:22:37;8.02;;;3.10;;
63902;SDS011;50072;50.678;13.938;2023-04-30T09:25:04;5.72;;;2.90;;
63902;SDS011;50072;50.678;13.938;2023-04-30T09:27:31;5.90;;;3.00;;
63902;SDS011;50072;50.678;13.938;2023-04-30T09:29:58;5.75;;;3.03;;
63902;SDS011;50072;50.678;13.938;2023-04-30T09:32:24;6.35;;;3.17;;
63902;SDS011;50072;50.678;13.938;2023-04-30T09:34:50;9.63;;;3.35;;
63902;SDS011;50072;50.678;13.938;2023-04-30T09:37:16;5.45;;;2.63;;
63902;SDS011;50072;50.678;13.938;2023-04-30T09:39:46;7.47;;;3.10;;
63902;SDS011;50072;50.678;13.938;2023-04-30T09:42:19;6.53;;;2.83;;
63902;SDS011;50072;50.678;13.938;2023-04-30T09:44:45;3.75;;;2.60;;
63902;SDS011;50072;50.678;13.938;2023-04-30T09:49:42;6.65;;;2.63;;
63902;SDS011;50072;50.678;13.938;2023-04-30T09:52:13;5.45;;;2.65;;
63902;SDS011;50072;50.678;13.938;2023-04-30T09:54:40;5.65;;;3.03;;
63902;SDS011;50072;50.678;13.938;2023-04-30T09:57:09;6.25;;;2.90;;
63902;SDS011;50072;50.678;13.938;2023-04-30T09:59:36;7.95;;;2.45;;
63902;SDS011;50072;50.678;13.938;2023-04-30T10:02:05;6.53;;;2.78;;
63902;SDS011;50072;50.678;13.938;2023-04-30T10:07:03;6.38;;;2.90;;
63902;SDS011;50072;50.678;13.938;2023-04-30T10:09:34;5.78;;;2.80;;
63902;SDS011;50072;50.678;13.938;2023-04-30T10:12:33;4.68;;;2.50;;
63902;SDS011;50072;50.678;13.938;2023-04-30T10:15:19;6.60;;;2.45;;
63902;SDS011;50072;50.678;13.938;2023-04-30T10:17:53;5.30;;;2.90;;
63902;SDS011;50072;50.678;13.938;2023-04-30T10:20:25;6.50;;;2.60;;
63902;SDS011;50072;50.678;13.938;2023-04-30T10:22:52;5.68;;;2.30;;
63902;SDS011;50072;50.678;13.938;2023-04-30T10:25:18;6.30;;;2.55;;
63902;SDS011;50072;50.678;13.938;2023-04-30T10:27:45;5.00;;;2.40;;
63902;SDS011;50072;50.678;13.938;2023-04-30T10:30:11;7.47;;;2.72;;
63902;SDS011;50072;50.678;13.938;2023-04-30T10:32:40;6.70;;;2.70;;
63902;SDS011;50072;50.678;13.938;2023-04-30T10:35:18;3.47;;;2.40;;
63902;SDS011;50072;50.678;13.938;2023-04-30T10:37:58;4.70;;;2.17;;
63902;SDS011;50072;50.678;13.938;2023-04-30T10:40:35;5.85;;;2.08;;
63902;SDS011;50072;50.678;13.938;2023-04-30T10:43:01;5.20;;;2.03;;
63902;SDS011;50072;50.678;13.938;2023-04-30T10:45:34;5.85;;;2.30;;
63902;SDS011;50072;50.678;13.938;2023-04-30T10:48:04;4.55;;;2.10;;
63902;SDS011;50072;50.678;13.938;2023-04-30T10:50:31;5.40;;;2.17;;
63902;SDS011;50072;50.678;13.938;2023-04-30T10:53:01;4.90;;;2.30;;
63902;SDS011;50072;50.678;13.938;2023-04-30T10:55:30;4.30;;;2.15;;
63902;SDS011;50072;50.678;13.938;2023-04-30T10:57:57;5.82;;;1.98;;
63902;SDS011;50072;50.678;13.938;2023-04-30T11:00:24;6.32;;;1.83;;
63902;SDS011;50072;50.678;13.938;2023-04-30T11:03:02;4.32;;;2.00;;
63902;SDS011;50072;50.678;13.938;2023-04-30T11:05:35;4.07;;;2.00;;
63902;SDS011;50072;50.678;13.938;2023-04-30T11:08:02;3.72;;;1.83;;
63902;SDS011;50072;50.678;13.938;2023-04-30T11:10:32;6.55;;;1.95;;
63902;SDS011;50072;50.678;13.938;2023-04-30T11:13:02;7.67;;;2.20;;
63902;SDS011;50072;50.678;13.938;2023-04-30T11:15:41;5.05;;;2.00;;
63902;SDS011;50072;50.678;13.938;2023-04-30T11:18:10;3.88;;;1.60;;
63902;SDS011;50072;50.678;13.938;2023-04-30T11:20:40;5.55;;;1.77;;
63902;SDS011;50072;50.678;13.938;2023-04-30T11:23:14;4.63;;;1.58;;
63902;SDS011;50072;50.678;13.938;2023-04-30T11:25:42;4.70;;;1.60;;
63902;SDS011;50072;50.678;13.938;2023-04-30T11:28:15;5.28;;;1.75;;
63902;SDS011;50072;50.678;13.938;2023-04-30T11:30:49;5.10;;;1.73;;
63902;SDS011;50072;50.678;13.938;2023-04-30T11:33:17;4.35;;;1.80;;
63902;SDS011;50072;50.678;13.938;2023-04-30T11:35:43;4.32;;;1.70;;
63902;SDS011;50072;50.678;13.938;2023-04-30T11:38:12;6.57;;;2.35;;
63902;SDS011;50072;50.678;13.938;2023-04-30T11:40:41;5.68;;;1.73;;
63902;SDS011;50072;50.678;13.938;2023-04-30T11:43:19;5.38;;;1.77;;
63902;SDS011;50072;50.678;13.938;2023-04-30T11:48:29;4.03;;;1.88;;
63902;SDS011;50072;50.678;13.938;2023-04-30T11:50:55;3.22;;;1.83;;
63902;SDS011;50072;50.678;13.938;2023-04-30T11:53:25;5.63;;;2.00;;
63902;SDS011;50072;50.678;13.938;2023-04-30T11:55:52;3.25;;;1.50;;
63902;SDS011;50072;50.678;13.938;2023-04-30T11:58:20;3.30;;;1.55;;
63902;SDS011;50072;50.678;13.938;2023-04-30T12:00:46;3.20;;;1.70;;
63902;SDS011;50072;50.678;13.938;2023-04-30T12:03:13;3.95;;;2.03;;
63902;SDS011;50072;50.678;13.938;2023-04-30T12:05:39;4.90;;;1.67;;
63902;SDS011;50072;50.678;13.938;2023-04-30T12:08:07;4.00;;;1.60;;
63902;SDS011;50072;50.678;13.938;2023-04-30T12:10:34;5.10;;;1.90;;
63902;SDS011;50072;50.678;13.938;2023-04-30T12:13:01;5.20;;;1.83;;
63902;SDS011;50072;50.678;13.938;2023-04-30T12:15:26;6.32;;;1.80;;
63902;SDS011;50072;50.678;13.938;2023-04-30T12:17:54;2.83;;;1.58;;
63902;SDS011;50072;50.678;13.938;2023-04-30T12:20:22;4.05;;;1.83;;
63902;SDS011;50072;50.678;13.938;2023-04-30T12:22:54;2.75;;;1.50;;
63902;SDS011;50072;50.678;13.938;2023-04-30T12:25:20;3.88;;;1.60;;
63902;SDS011;50072;50.678;13.938;2023-04-30T12:27:48;4.32;;;1.20;;
63902;SDS011;50072;50.678;13.938;2023-04-30T12:30:33;4.60;;;1.67;;
63902;SDS011;50072;50.678;13.938;2023-04-30T12:32:59;5.45;;;1.83;;
63902;SDS011;50072;50.678;13.938;2023-04-30T12:35:28;3.78;;;1.45;;
63902;SDS011;50072;50.678;13.938;2023-04-30T12:38:02;3.63;;;1.65;;
63902;SDS011;50072;50.678;13.938;2023-04-30T12:40:30;4.40;;;1.60;;
63902;SDS011;50072;50.678;13.938;2023-04-30T12:43:03;2.97;;;1.50;;
63902;SDS011;50072;50.678;13.938;2023-04-30T12:45:49;4.20;;;1.95;;
63902;SDS011;50072;50.678;13.938;2023-04-30T12:48:16;5.85;;;1.83;;
63902;SDS011;50072;50.678;13.938;2023-04-30T12:50:47;3.83;;;1.60;;
63902;SDS011;50072;50.678;13.938;2023-04-30T12:53:26;5.00;;;1.60;;
63902;SDS011;50072;50.678;13.938;2023-04-30T12:56:05;4.00;;;1.60;;
63902;SDS011;50072;50.678;13.938;2023-04-30T12:58:42;3.88;;;1.52;;
63902;SDS011;50072;50.678;13.938;2023-04-30T13:01:10;3.75;;;1.73;;
63902;SDS011;50072;50.678;13.938;2023-04-30T13:03:37;6.10;;;1.90;;
63902;SDS011;50072;50.678;13.938;2023-04-30T13:06:05;5.07;;;2.55;;
63902;SDS011;50072;50.678;13.938;2023-04-30T13:08:31;4.88;;;2.20;;
63902;SDS011;50072;50.678;13.938;2023-04-30T13:10:57;4.80;;;2.00;;
63902;SDS011;50072;50.678;13.938;2023-04-30T13:13:25;6.20;;;2.90;;
63902;SDS011;50072;50.678;13.938;2023-04-30T13:15:51;5.20;;;2.13;;
63902;SDS011;50072;50.678;13.938;2023-04-30T13:18:18;4.65;;;1.88;;
63902;SDS011;50072;50.678;13.938;2023-04-30T13:20:46;8.82;;;3.72;;
63902;SDS011;50072;50.678;13.938;2023-04-30T13:23:12;5.57;;;2.75;;
63902;SDS011;50072;50.678;13.938;2023-04-30T13:25:39;3.92;;;2.10;;
63902;SDS011;50072;50.678;13.938;2023-04-30T13:28:07;6.80;;;4.18;;
63902;SDS011;50072;50.678;13.938;2023-04-30T13:30:33;5.40;;;2.60;;
63902;SDS011;50072;50.678;13.938;2023-04-30T13:33:00;3.88;;;1.73;;
63902;SDS011;50072;50.678;13.938;2023-04-30T13:35:28;2.95;;;1.73;;
63902;SDS011;50072;50.678;13.938;2023-04-30T13:37:57;3.90;;;1.80;;
63902;SDS011;50072;50.678;13.938;2023-04-30T13:40:25;5.20;;;2.10;;
63902;SDS011;50072;50.678;13.938;2023-04-30T13:42:52;3.88;;;1.60;;
63902;SDS011;50072;50.678;13.938;2023-04-30T13:45:18;3.97;;;1.67;;
63902;SDS011;50072;50.678;13.938;2023-04-30T13:47:45;4.32;;;1.50;;
63902;SDS011;50072;50.678;13.938;2023-04-30T13:50:11;5.15;;;1.50;;
63902;SDS011;50072;50.678;13.938;2023-04-30T13:52:37;2.92;;;1.70;;
63902;SDS011;50072;50.678;13.938;2023-04-30T13:55:03;4.35;;;1.92;;
63902;SDS011;50072;50.678;13.938;2023-04-30T13:57:31;4.38;;;1.48;;
63902;SDS011;50072;50.678;13.938;2023-04-30T13:59:59;7.22;;;4.32;;
63902;SDS011;50072;50.678;13.938;2023-04-30T14:02:25;3.63;;;1.75;;
63902;SDS011;50072;50.678;13.938;2023-04-30T14:04:54;4.82;;;2.40;;
63902;SDS011;50072;50.678;13.938;2023-04-30T14:07:22;5.20;;;1.50;;
63902;SDS011;50072;50.678;13.938;2023-04-30T14:09:50;3.63;;;1.50;;
63902;SDS011;50072;50.678;13.938;2023-04-30T14:12:16;4.00;;;1.50;;
63902;SDS011;50072;50.678;13.938;2023-04-30T14:14:43;5.18;;;1.30;;
63902;SDS011;50072;50.678;13.938;2023-04-30T14:17:09;7.22;;;1.70;;
63902;SDS011;50072;50.678;13.938;2023-04-30T14:19:37;3.85;;;1.30;;
63902;SDS011;50072;50.678;13.938;2023-04-30T14:22:03;3.22;;;1.20;;
63902;SDS011;50072;50.678;13.938;2023-04-30T14:24:37;4.57;;;1.50;;
63902;SDS011;50072;50.678;13.938;2023-04-30T14:27:03;5.65;;;1.30;;
63902;SDS011;50072;50.678;13.938;2023-04-30T14:29:31;4.85;;;2.05;;
63902;SDS011;50072;50.678;13.938;2023-04-30T14:31:57;11.45;;;7.97;;
63902;SDS011;50072;50.678;13.938;2023-04-30T14:34:29;7.25;;;4.30;;
63902;SDS011;50072;50.678;13.938;2023-04-30T14:36:58;3.78;;;1.38;;
63902;SDS011;50072;50.678;13.938;2023-04-30T14:39:31;2.33;;;1.10;;
63902;SDS011;50072;50.678;13.938;2023-04-30T14:41:57;6.28;;;3.65;;
63902;SDS011;50072;50.678;13.938;2023-04-30T14:44:35;4.68;;;1.60;;
63902;SDS011;50072;50.678;13.938;2023-04-30T14:47:03;3.00;;;1.50;;
63902;SDS011;50072;50.678;13.938;2023-04-30T14:49:31;6.68;;;3.13;;
63902;SDS011;50072;50.678;13.938;2023-04-30T14:52:01;3.75;;;1.80;;
63902;SDS011;50072;50.678;13.938;2023-04-30T14:54:29;13.10;;;3.92;;
63902;SDS011;50072;50.678;13.938;2023-04-30T14:57:06;11.27;;;4.78;;
63902;SDS011;50072;50.678;13.938;2023-04-30T14:59:38;3.50;;;1.80;;
63902;SDS011;50072;50.678;13.938;2023-04-30T15:02:07;5.25;;;2.20;;
63902;SDS011;50072;50.678;13.938;2023-04-30T15:04:33;5.72;;;2.33;;